Time;durP1;ratioP1;P1;durP2;ratioP2;P2;SDS_P1;SDS_P2;PMS_P1;PMS_P2;Temp;Humidity;BMP_temperature;BMP_pressure;BME280_temperature;BME280_humidity;BME280_pressure;Samples;Min_cycle;Max_cycle;Signal;HPM_P1;HPM_P2
2022/06/30 00:01:11;;;;;;;14.57;12.35;;;;;;;18.13;100.00;100891.22;5241654;28;20028;-68
2022/06/30 00:03:42;;;;;;;13.68;12.35;;;;;;;18.05;100.00;100890.38;5233747;28;20491;-69
2022/06/30 00:06:13;;;;;;;14.02;12.52;;;;;;;18.03;100.00;100895.94;5239664;28;20029;-68
2022/06/30 00:08:44;;;;;;;15.75;13.15;;;;;;;18.02;100.00;100896.94;5242229;28;20550;-69
2022/06/30 00:11:16;;;;;;;14.02;12.48;;;;;;;18.01;100.00;100892.56;5233528;28;20031;-68
2022/06/30 00:13:49;;;;;;;14.18;12.68;;;;;;;17.91;100.00;100886.44;5235469;28;20040;-69
2022/06/30 00:16:20;;;;;;;14.98;12.52;;;;;;;18.01;100.00;100888.00;5244206;28;20036;-68
2022/06/30 00:18:51;;;;;;;14.68;13.00;;;;;;;17.99;100.00;100887.31;5246186;28;20419;-68
2022/06/30 00:21:23;;;;;;;14.63;12.98;;;;;;;17.98;100.00;100879.38;5233360;28;20021;-68
2022/06/30 00:23:54;;;;;;;14.98;12.75;;;;;;;17.90;100.00;100869.41;5236232;28;20138;-68
2022/06/30 00:26:26;;;;;;;12.73;11.52;;;;;;;17.99;100.00;100870.28;5246902;28;20041;-68
2022/06/30 00:28:57;;;;;;;13.57;12.18;;;;;;;17.95;100.00;100866.22;5248540;28;20075;-68
2022/06/30 00:31:28;;;;;;;13.15;11.85;;;;;;;17.86;100.00;100867.22;5248495;28;20566;-68
2022/06/30 00:33:59;;;;;;;15.50;11.18;;;;;;;17.89;100.00;100866.88;5247489;28;20438;-68
2022/06/30 00:36:31;;;;;;;16.27;11.95;;;;;;;17.77;100.00;100859.03;5244577;28;20085;-68
2022/06/30 00:39:02;;;;;;;13.68;12.23;;;;;;;17.70;100.00;100867.97;5248236;28;20086;-68
2022/06/30 00:41:38;;;;;;;14.00;11.98;;;;;;;17.73;100.00;100865.78;5246536;28;20033;-68
2022/06/30 00:44:13;;;;;;;13.05;11.68;;;;;;;17.66;100.00;100866.59;5240928;28;20033;-68
2022/06/30 00:46:44;;;;;;;12.85;11.50;;;;;;;17.62;100.00;100876.88;5240660;28;20689;-68
2022/06/30 00:49:17;;;;;;;14.45;12.65;;;;;;;17.54;100.00;100872.28;5244584;28;20037;-68
2022/06/30 00:51:49;;;;;;;14.20;12.52;;;;;;;17.56;100.00;100870.28;5246689;28;20037;-68
2022/06/30 00:54:22;;;;;;;13.25;11.88;;;;;;;17.51;100.00;100872.63;5245120;28;20466;-68
2022/06/30 00:56:55;;;;;;;14.48;12.32;;;;;;;17.54;100.00;100876.84;5245524;28;20499;-68
2022/06/30 00:59:28;;;;;;;14.30;12.05;;;;;;;17.52;100.00;100878.88;5240426;28;20457;-68
2022/06/30 01:02:01;;;;;;;14.73;11.97;;;;;;;17.54;100.00;100879.53;5238228;28;20024;-68
2022/06/30 01:04:34;;;;;;;14.88;11.48;;;;;;;17.46;100.00;100876.81;5238746;28;20872;-68
2022/06/30 01:07:05;;;;;;;12.38;11.07;;;;;;;17.48;100.00;100872.94;5244200;28;20391;-68
2022/06/30 01:12:44;;;;;;;14.02;11.80;;;;;;;17.38;100.00;100866.84;5231734;28;20490;-68
2022/06/30 01:15:18;;;;;;;13.25;11.55;;;;;;;17.34;100.00;100862.78;5244774;28;20518;-68
2022/06/30 01:17:51;;;;;;;12.63;11.32;;;;;;;17.31;100.00;100869.31;5235687;28;20443;-68
2022/06/30 01:20:28;;;;;;;14.00;11.48;;;;;;;17.24;100.00;100879.09;5237613;28;20486;-68
2022/06/30 01:23:02;;;;;;;12.88;11.13;;;;;;;17.23;100.00;100877.38;5241050;28;20538;-68
2022/06/30 01:25:34;;;;;;;13.98;11.25;;;;;;;17.18;100.00;100880.56;5243309;28;20026;-68
2022/06/30 01:28:06;;;;;;;12.77;11.30;;;;;;;17.14;100.00;100875.63;5249713;28;20032;-68
2022/06/30 01:30:37;;;;;;;13.60;11.10;;;;;;;17.14;100.00;100872.94;5238768;28;20025;-68
2022/06/30 01:33:08;;;;;;;14.07;11.45;;;;;;;17.11;100.00;100884.06;5247070;28;20074;-70
2022/06/30 01:35:40;;;;;;;13.18;11.27;;;;;;;17.03;100.00;100882.16;5247058;28;20025;-68
2022/06/30 01:38:11;;;;;;;12.88;10.88;;;;;;;17.03;100.00;100876.75;5247714;28;20029;-69
2022/06/30 01:40:43;;;;;;;12.55;11.25;;;;;;;16.97;100.00;100886.34;5244076;28;20037;-68
2022/06/30 01:43:14;;;;;;;12.45;10.63;;;;;;;16.98;100.00;100888.00;5248518;28;20491;-68
2022/06/30 01:45:46;;;;;;;12.45;10.73;;;;;;;17.03;100.00;100877.59;5259293;28;20392;-68
2022/06/30 01:48:17;;;;;;;12.70;11.18;;;;;;;16.94;100.00;100889.31;5249599;28;20029;-69
2022/06/30 01:50:48;;;;;;;13.63;11.23;;;;;;;16.94;100.00;100886.63;5243393;28;20020;-69
2022/06/30 01:53:20;;;;;;;12.02;10.38;;;;;;;16.93;100.00;100881.41;5239724;28;20029;-69
2022/06/30 01:55:51;;;;;;;13.00;11.23;;;;;;;16.97;100.00;100878.25;5242472;28;20048;-69
2022/06/30 01:58:22;;;;;;;13.48;10.88;;;;;;;16.92;100.00;100880.56;5249039;28;20024;-69
2022/06/30 02:00:54;;;;;;;12.80;11.50;;;;;;;16.90;100.00;100877.19;5241337;28;20116;-69
2022/06/30 02:03:25;;;;;;;12.32;10.90;;;;;;;16.83;100.00;100879.63;5253479;28;20090;-69
2022/06/30 02:05:56;;;;;;;12.95;11.57;;;;;;;16.81;100.00;100884.31;5249933;28;20543;-69
2022/06/30 02:08:28;;;;;;;13.13;10.60;;;;;;;16.77;100.00;100885.63;5240244;28;21614;-69
2022/06/30 02:10:59;;;;;;;12.50;11.18;;;;;;;16.71;100.00;100888.13;5245416;28;20107;-69
2022/06/30 02:13:30;;;;;;;12.63;11.15;;;;;;;16.73;100.00;100888.81;5248071;28;20471;-69
2022/06/30 02:16:01;;;;;;;12.63;11.20;;;;;;;16.68;100.00;100900.03;5243675;28;20052;-69
2022/06/30 02:18:33;;;;;;;14.75;11.45;;;;;;;16.69;100.00;100890.13;5249417;28;20033;-69
2022/06/30 02:21:04;;;;;;;12.00;10.80;;;;;;;16.64;100.00;100891.44;5247275;28;20474;-69
2022/06/30 02:23:35;;;;;;;12.65;11.30;;;;;;;16.62;100.00;100893.44;5235706;28;20029;-69
2022/06/30 02:26:06;;;;;;;12.82;11.52;;;;;;;16.56;100.00;100896.75;5245594;28;20356;-69
2022/06/30 02:28:38;;;;;;;13.20;11.25;;;;;;;16.59;100.00;100895.59;5251852;28;20083;-69
2022/06/30 02:31:12;;;;;;;13.38;11.43;;;;;;;16.48;100.00;100909.31;5241391;28;20021;-69
2022/06/30 02:33:44;;;;;;;13.13;11.55;;;;;;;16.46;100.00;100909.47;5244316;28;20098;-69
2022/06/30 02:36:15;;;;;;;12.70;11.40;;;;;;;16.55;100.00;100907.66;5251060;28;20041;-69
2022/06/30 02:38:46;;;;;;;13.35;10.80;;;;;;;16.42;100.00;100908.06;5243356;28;20029;-69
2022/06/30 02:41:18;;;;;;;12.50;11.20;;;;;;;16.44;100.00;100909.59;5252808;28;20040;-69
2022/06/30 02:43:49;;;;;;;13.38;11.35;;;;;;;16.36;100.00;100900.63;5247843;28;20033;-69
2022/06/30 02:46:20;;;;;;;15.05;10.88;;;;;;;16.32;100.00;100900.09;5246488;28;20055;-69
2022/06/30 02:48:52;;;;;;;13.20;11.85;;;;;;;16.41;100.00;100892.91;5248761;28;20637;-69
2022/06/30 02:51:23;;;;;;;12.50;11.18;;;;;;;16.31;100.00;100893.00;5250562;28;20028;-69
2022/06/30 02:53:54;;;;;;;13.48;11.88;;;;;;;16.23;100.00;100892.91;5250025;28;20434;-69
2022/06/30 02:56:25;;;;;;;12.40;11.20;;;;;;;16.18;100.00;100898.75;5251250;28;20053;-69
2022/06/30 02:58:57;;;;;;;13.63;11.75;;;;;;;16.16;100.00;100892.66;5250887;28;20057;-69
2022/06/30 03:01:28;;;;;;;13.18;11.18;;;;;;;16.14;100.00;100891.97;5248303;28;20029;-69
2022/06/30 03:04:01;;;;;;;13.35;11.95;;;;;;;16.14;100.00;100891.13;5247277;28;20032;-69
2022/06/30 03:06:33;;;;;;;15.85;11.55;;;;;;;16.05;100.00;100884.81;5251754;28;20467;-69
2022/06/30 03:09:05;;;;;;;12.38;11.18;;;;;;;16.08;100.00;100887.22;5243494;28;20860;-69
2022/06/30 03:11:36;;;;;;;13.45;12.05;;;;;;;16.03;100.00;100886.81;5252261;28;20111;-69
2022/06/30 03:14:07;;;;;;;13.25;11.38;;;;;;;15.98;100.00;100879.19;5243370;28;20056;-69
2022/06/30 03:16:38;;;;;;;16.30;12.18;;;;;;;16.01;100.00;100888.81;5235196;28;20614;-69
2022/06/30 03:19:11;;;;;;;13.30;11.80;;;;;;;15.94;100.00;100887.75;5239626;28;20396;-69
2022/06/30 03:21:42;;;;;;;13.32;11.90;;;;;;;15.93;100.00;100878.81;5231812;28;20444;-69
2022/06/30 03:24:13;;;;;;;14.60;12.10;;;;;;;15.93;100.00;100886.03;5247119;28;20033;-69
2022/06/30 03:26:45;;;;;;;12.55;11.25;;;;;;;15.90;100.00;100889.00;5244891;28;20037;-69
2022/06/30 03:29:16;;;;;;;15.70;12.90;;;;;;;15.87;100.00;100879.41;5246586;28;20128;-69
2022/06/30 03:31:47;;;;;;;13.27;12.00;;;;;;;15.93;100.00;100878.81;5248953;28;20086;-69
2022/06/30 03:34:19;;;;;;;14.80;12.57;;;;;;;15.83;100.00;100888.78;5247939;28;20036;-69
2022/06/30 03:36:51;;;;;;;13.43;11.88;;;;;;;15.78;100.00;100889.25;5238968;28;20091;-69
2022/06/30 03:39:22;;;;;;;13.60;11.38;;;;;;;15.82;100.00;100876.31;5245108;28;20045;-69
2022/06/30 03:41:53;;;;;;;13.40;11.93;;;;;;;15.74;100.00;100881.63;5242758;28;20029;-69
2022/06/30 03:44:24;;;;;;;13.48;12.13;;;;;;;15.75;100.00;100877.94;5241710;28;20391;-69
2022/06/30 03:46:56;;;;;;;14.73;12.38;;;;;;;15.70;100.00;100870.28;5235191;28;20071;-69
2022/06/30 03:49:28;;;;;;;13.18;11.77;;;;;;;15.68;100.00;100880.34;5233918;28;20088;-69
2022/06/30 03:51:59;;;;;;;14.45;12.90;;;;;;;15.68;100.00;100877.66;5239419;28;20029;-69
2022/06/30 03:54:30;;;;;;;20.52;12.50;;;;;;;15.68;100.00;100877.66;5236180;28;20052;-69
2022/06/30 03:57:02;;;;;;;15.48;12.68;;;;;;;15.67;100.00;100871.44;5239132;28;20675;-69
2022/06/30 03:59:33;;;;;;;15.30;12.75;;;;;;;15.67;100.00;100863.34;5239735;28;21554;-69
2022/06/30 04:02:06;;;;;;;15.63;12.60;;;;;;;15.67;100.00;100866.03;5236773;28;20033;-69
2022/06/30 04:04:37;;;;;;;13.73;11.85;;;;;;;15.63;100.00;100869.19;5240288;28;20024;-69
2022/06/30 04:07:08;;;;;;;14.15;12.65;;;;;;;15.72;100.00;100870.97;5233521;28;20102;-69
2022/06/30 04:09:39;;;;;;;13.98;12.48;;;;;;;15.67;100.00;100867.91;5234981;28;20025;-69
2022/06/30 04:12:11;;;;;;;14.27;12.75;;;;;;;15.68;100.00;100870.41;5234571;28;20032;-69
2022/06/30 04:14:42;;;;;;;13.07;11.68;;;;;;;15.75;100.00;100864.50;5234142;28;20102;-69
2022/06/30 04:17:14;;;;;;;15.88;12.50;;;;;;;15.69;100.00;100857.84;5234531;28;20082;-69
2022/06/30 04:19:45;;;;;;;14.85;12.65;;;;;;;15.73;100.00;100866.44;5244455;28;20119;-69
2022/06/30 04:22:16;;;;;;;15.02;12.63;;;;;;;15.71;100.00;100884.59;5230980;28;20130;-69
2022/06/30 04:24:48;;;;;;;13.85;12.07;;;;;;;15.76;100.00;100885.00;5237690;28;20033;-69
2022/06/30 04:27:19;;;;;;;14.10;12.32;;;;;;;15.88;100.00;100884.66;5235412;28;20538;-69
2022/06/30 04:29:50;;;;;;;13.27;11.80;;;;;;;15.86;100.00;100885.81;5235179;28;20050;-69
2022/06/30 04:35:25;;;;;;;13.38;11.98;;;;;;;15.93;100.00;100894.09;5208735;28;20076;-69
2022/06/30 04:37:58;;;;;;;15.43;12.77;;;;;;;15.93;100.00;100938.00;5247326;28;20116;-69
2022/06/30 04:43:19;;;;;;;22.70;15.90;;;;;;;16.07;100.00;100901.69;5244590;28;20036;-69
2022/06/30 04:45:51;;;;;;;18.58;16.67;;;;;;;16.09;100.00;100942.75;5243990;28;20024;-69
2022/06/30 04:48:23;;;;;;;18.40;16.58;;;;;;;16.10;100.00;100914.81;5250150;28;20407;-69
2022/06/30 04:50:54;;;;;;;19.23;17.35;;;;;;;16.08;100.00;100925.72;5243553;28;20026;-69
2022/06/30 04:53:25;;;;;;;19.38;17.58;;;;;;;16.14;100.00;100935.03;5253514;28;20044;-69
2022/06/30 04:55:57;;;;;;;20.85;18.73;;;;;;;16.11;100.00;100919.22;5245518;28;20517;-69
2022/06/30 04:58:28;;;;;;;21.88;19.73;;;;;;;16.10;100.00;100946.28;5240606;28;20068;-69
2022/06/30 05:01:00;;;;;;;23.67;21.17;;;;;;;16.10;100.00;100932.81;5240301;28;20030;-69
2022/06/30 05:03:32;;;;;;;23.63;21.30;;;;;;;16.09;100.00;100929.28;5245610;28;20036;-69
2022/06/30 05:06:08;;;;;;;25.77;23.05;;;;;;;16.10;100.00;100939.03;5244034;28;20025;-69
2022/06/30 05:08:39;;;;;;;26.63;22.65;;;;;;;16.11;100.00;100932.69;5247068;28;20032;-69
2022/06/30 05:11:10;;;;;;;25.55;22.58;;;;;;;16.14;100.00;100931.50;5242299;28;20467;-69
2022/06/30 05:13:41;;;;;;;27.17;24.27;;;;;;;16.14;100.00;100929.66;5247154;28;20029;-69
2022/06/30 05:16:13;;;;;;;25.90;23.20;;;;;;;16.21;100.00;100927.22;5243085;28;20078;-69
2022/06/30 05:18:44;;;;;;;28.23;25.15;;;;;;;16.20;100.00;100931.78;5246285;28;20064;-69
2022/06/30 05:21:15;;;;;;;27.55;24.83;;;;;;;16.25;100.00;100936.69;5237862;28;20082;-69
2022/06/30 05:26:28;;;;;;;31.23;26.42;;;;;;;16.24;100.00;100922.38;5236895;28;20025;-69
2022/06/30 05:26:38;;;;;;;27.45;24.63;;;;;;;16.31;100.00;100940.63;5244683;28;20052;-69
2022/06/30 05:29:09;;;;;;;28.65;25.35;;;;;;;16.38;100.00;100920.16;5246439;28;20392;-69
2022/06/30 05:31:41;;;;;;;28.58;25.00;;;;;;;16.44;100.00;100931.16;5239402;28;20627;-69
2022/06/30 05:34:12;;;;;;;28.00;25.00;;;;;;;16.42;100.00;100926.94;5254202;28;20114;-69
2022/06/30 05:36:44;;;;;;;26.70;23.98;;;;;;;16.44;100.00;100941.94;5243540;28;20037;-69
2022/06/30 05:39:17;;;;;;;27.45;23.50;;;;;;;16.46;100.00;100929.16;5236559;28;20044;-69
2022/06/30 05:41:48;;;;;;;25.27;21.42;;;;;;;16.49;100.00;100938.75;5244261;28;20029;-69
2022/06/30 05:44:19;;;;;;;24.10;21.58;;;;;;;16.49;100.00;100936.06;5241609;28;20044;-69
2022/06/30 05:46:51;;;;;;;23.80;20.92;;;;;;;16.50;100.00;100939.63;5245818;28;20071;-69
2022/06/30 05:49:23;;;;;;;22.58;19.90;;;;;;;16.53;100.00;100948.25;5250187;28;20021;-69
2022/06/30 05:51:54;;;;;;;21.55;18.33;;;;;;;16.55;100.00;100937.31;5244393;28;20144;-69
2022/06/30 05:54:26;;;;;;;26.52;19.35;;;;;;;16.58;100.00;100942.38;5244059;28;21610;-69
2022/06/30 05:56:57;;;;;;;19.40;16.58;;;;;;;16.63;100.00;100940.94;5242497;28;20067;-69
2022/06/30 05:59:30;;;;;;;19.63;16.52;;;;;;;16.69;100.00;100941.31;5242569;28;20025;-69
2022/06/30 06:02:02;;;;;;;21.52;17.13;;;;;;;16.72;100.00;100943.69;5238051;28;20542;-69
2022/06/30 06:04:34;;;;;;;16.98;14.82;;;;;;;16.76;100.00;100935.16;5240830;28;20036;-69
2022/06/30 06:07:06;;;;;;;16.98;14.50;;;;;;;16.75;100.00;100940.69;5239125;28;20567;-69
2022/06/30 06:09:37;;;;;;;18.83;13.45;;;;;;;16.74;100.00;100929.06;5239253;28;20032;-69
2022/06/30 06:12:09;;;;;;;17.70;13.80;;;;;;;16.80;100.00;100933.84;5250187;28;20029;-69
2022/06/30 06:14:40;;;;;;;16.48;13.30;;;;;;;16.87;100.00;100947.56;5244021;28;20028;-69
2022/06/30 06:17:11;;;;;;;18.48;13.48;;;;;;;16.91;100.00;100946.22;5252278;28;20029;-69
2022/06/30 06:19:42;;;;;;;16.02;13.43;;;;;;;16.90;100.00;100944.56;5237043;28;20112;-69
2022/06/30 06:22:14;;;;;;;17.27;12.95;;;;;;;16.97;100.00;100955.53;5236457;28;20068;-69
2022/06/30 06:24:45;;;;;;;16.42;13.18;;;;;;;17.04;100.00;100954.75;5240427;28;20610;-69
2022/06/30 06:27:16;;;;;;;19.67;12.98;;;;;;;17.09;100.00;100956.16;5245383;28;20434;-69
2022/06/30 06:29:47;;;;;;;14.63;12.80;;;;;;;17.17;100.00;100957.06;5243341;28;20036;-69
2022/06/30 06:32:22;;;;;;;18.48;12.30;;;;;;;17.29;100.00;100963.03;5244959;28;20100;-69
2022/06/30 06:34:53;;;;;;;17.08;11.50;;;;;;;17.33;100.00;100968.94;5240132;28;20148;-69
2022/06/30 06:37:24;;;;;;;15.38;11.63;;;;;;;17.40;100.00;100967.31;5240500;28;20121;-69
2022/06/30 06:39:56;;;;;;;15.65;11.95;;;;;;;17.57;100.00;100965.56;5244488;28;20502;-69
2022/06/30 06:42:27;;;;;;;15.20;11.73;;;;;;;17.62;100.00;100963.22;5246305;28;20120;-69
2022/06/30 06:44:58;;;;;;;16.70;11.43;;;;;;;17.75;100.00;100966.31;5243076;28;20403;-69
2022/06/30 06:47:31;;;;;;;17.00;11.23;;;;;;;17.82;100.00;100969.22;5238498;28;20140;-69
2022/06/30 06:50:03;;;;;;;15.93;10.82;;;;;;;17.90;100.00;100977.41;5249794;28;20039;-69
2022/06/30 06:52:35;;;;;;;15.32;10.52;;;;;;;17.97;100.00;100974.91;5242581;28;20170;-69
2022/06/30 06:55:06;;;;;;;18.30;11.63;;;;;;;18.03;100.00;100977.78;5245598;28;20406;-69
2022/06/30 06:57:40;;;;;;;16.08;11.25;;;;;;;18.08;100.00;100987.25;5238196;28;20091;-69
2022/06/30 07:00:12;;;;;;;15.30;11.35;;;;;;;18.11;100.00;100982.38;5247709;28;20484;-69
2022/06/30 07:02:44;;;;;;;15.27;11.50;;;;;;;18.20;100.00;100984.09;5240012;28;20128;-69
2022/06/30 07:05:15;;;;;;;16.10;10.27;;;;;;;18.37;100.00;100989.53;5247038;28;20052;-69
2022/06/30 07:07:55;;;;;;;16.02;10.00;;;;;;;18.45;100.00;100991.41;5240185;28;20029;-70
2022/06/30 07:10:27;;;;;;;15.88;10.60;;;;;;;18.50;100.00;100992.59;5243595;28;20029;-69
2022/06/30 07:12:59;;;;;;;14.85;10.07;;;;;;;18.60;100.00;101005.94;5239963;28;20048;-69
2022/06/30 07:15:30;;;;;;;16.48;10.13;;;;;;;18.70;100.00;101006.66;5242571;28;20148;-69
2022/06/30 07:18:03;;;;;;;16.42;9.60;;;;;;;18.74;99.46;101018.84;5242576;28;20103;-69
2022/06/30 07:20:34;;;;;;;13.50;9.65;;;;;;;18.76;98.57;101022.22;5242561;28;20159;-70
2022/06/30 07:23:05;;;;;;;13.52;9.20;;;;;;;18.86;98.02;101022.09;5241638;28;20037;-70
2022/06/30 07:25:37;;;;;;;13.88;8.77;;;;;;;18.87;97.83;101020.22;5236022;28;20033;-70
2022/06/30 07:28:08;;;;;;;11.75;8.00;;;;;;;19.08;97.13;101015.19;5237533;28;20541;-69
2022/06/30 07:30:39;;;;;;;15.57;8.38;;;;;;;19.19;96.70;101011.28;5238031;28;20021;-69
2022/06/30 07:33:11;;;;;;;11.95;7.55;;;;;;;19.38;97.53;101019.03;5239082;28;20125;-70
2022/06/30 07:35:42;;;;;;;12.52;7.45;;;;;;;19.46;95.27;101010.06;5242910;28;20071;-70
2022/06/30 07:38:13;;;;;;;12.40;7.47;;;;;;;19.37;93.17;101009.25;5237163;28;20542;-70
2022/06/30 07:40:44;;;;;;;12.85;7.03;;;;;;;19.50;92.60;101008.72;5238578;28;20544;-70
2022/06/30 07:43:16;;;;;;;15.25;7.03;;;;;;;19.56;92.11;101018.84;5237071;28;21582;-69
2022/06/30 07:45:47;;;;;;;10.50;6.68;;;;;;;19.69;93.36;101009.34;5236423;28;20196;-69
2022/06/30 07:48:19;;;;;;;13.38;6.38;;;;;;;19.78;93.24;101009.16;5232113;28;20098;-69
2022/06/30 07:50:50;;;;;;;13.60;5.80;;;;;;;19.90;92.28;101019.63;5240317;28;20361;-70
2022/06/30 07:53:21;;;;;;;11.63;5.45;;;;;;;20.03;90.85;101009.09;5235786;28;20029;-70
2022/06/30 07:55:53;;;;;;;9.23;5.72;;;;;;;19.97;88.39;101013.34;5239127;28;20044;-70
2022/06/30 07:58:24;;;;;;;11.10;5.20;;;;;;;20.08;90.12;101017.53;5240313;28;20033;-70
2022/06/30 08:00:55;;;;;;;10.07;5.28;;;;;;;20.14;87.17;101011.41;5239581;28;20256;-70
2022/06/30 08:03:27;;;;;;;10.68;5.22;;;;;;;20.22;85.32;101007.00;5240839;28;20024;-70
2022/06/30 08:05:59;;;;;;;9.63;5.25;;;;;;;20.29;82.96;101002.56;5239526;28;20025;-70
2022/06/30 08:08:30;;;;;;;11.50;5.50;;;;;;;20.28;82.50;101004.41;5238004;28;20048;-70
2022/06/30 08:11:02;;;;;;;10.43;4.80;;;;;;;20.33;81.43;101004.72;5245813;28;20029;-69
2022/06/30 08:13:33;;;;;;;12.57;5.10;;;;;;;20.30;82.78;101001.53;5236014;28;20070;-70
2022/06/30 08:16:04;;;;;;;11.23;4.60;;;;;;;20.53;84.13;101005.09;5241367;28;20084;-69
2022/06/30 08:18:36;;;;;;;10.25;4.88;;;;;;;20.69;83.08;101012.34;5247720;28;20040;-69
2022/06/30 08:21:09;;;;;;;8.77;4.70;;;;;;;20.69;81.82;101015.06;5240943;28;20160;-69
2022/06/30 08:23:40;;;;;;;10.18;5.47;;;;;;;20.76;81.35;101007.03;5238352;28;20036;-69
2022/06/30 08:26:11;;;;;;;8.73;5.05;;;;;;;20.93;81.21;101010.47;5235252;28;20041;-69
2022/06/30 08:28:43;;;;;;;10.98;4.60;;;;;;;20.88;79.30;101012.88;5242545;28;20063;-69
2022/06/30 08:31:15;;;;;;;9.35;3.97;;;;;;;21.15;80.65;101015.03;5241189;28;20419;-70
2022/06/30 08:33:50;;;;;;;9.25;5.45;;;;;;;21.15;79.74;101019.59;5238226;28;20866;-70
2022/06/30 08:36:22;;;;;;;9.32;4.43;;;;;;;21.27;79.80;101028.16;5240755;28;20037;-69
2022/06/30 08:38:53;;;;;;;10.85;4.93;;;;;;;21.20;77.63;101008.22;5234019;28;20039;-70
2022/06/30 08:44:17;;;;;;;10.60;4.65;;;;;;;21.39;77.87;101021.25;5233811;28;20034;-69
2022/06/30 08:46:49;;;;;;;9.10;4.10;;;;;;;21.60;79.41;101026.00;5232531;28;20024;-69
2022/06/30 08:49:20;;;;;;;9.95;4.82;;;;;;;21.58;78.42;101013.66;5244512;28;20510;-69
2022/06/30 08:51:55;;;;;;;8.80;4.30;;;;;;;21.54;76.66;101013.19;5242349;28;20026;-69
2022/06/30 08:54:27;;;;;;;9.48;4.90;;;;;;;21.58;76.70;101009.06;5240052;28;20033;-69
2022/06/30 08:57:01;;;;;;;9.88;4.95;;;;;;;21.52;76.65;101009.81;5237049;28;20048;-69
2022/06/30 08:59:34;;;;;;;8.93;5.28;;;;;;;21.64;76.78;101018.34;5238484;28;20036;-69
2022/06/30 09:02:05;;;;;;;10.90;4.75;;;;;;;21.62;76.75;101014.97;5234981;28;20033;-69
2022/06/30 09:04:36;;;;;;;8.50;4.55;;;;;;;21.79;76.39;101021.06;5235225;28;20033;-69
2022/06/30 09:07:07;;;;;;;9.30;4.32;;;;;;;21.95;74.77;101028.19;5235805;28;20025;-69
2022/06/30 09:09:39;;;;;;;9.25;3.75;;;;;;;22.02;74.67;101016.38;5236298;28;20026;-69
2022/06/30 09:12:15;;;;;;;8.63;4.22;;;;;;;22.04;72.52;101029.75;5245747;28;20048;-69
2022/06/30 09:14:47;;;;;;;9.50;4.47;;;;;;;22.22;74.51;101026.66;5250390;28;20087;-69
2022/06/30 09:17:20;;;;;;;11.27;4.05;;;;;;;22.19;73.19;101024.31;5254924;28;20754;-69
2022/06/30 09:20:10;;;;;;;8.97;4.60;;;;;;;22.12;71.86;101030.50;5243318;28;20040;-69
2022/06/30 09:22:42;;;;;;;8.55;3.78;;;;;;;21.99;70.37;101024.03;5238477;28;20048;-69
2022/06/30 09:25:15;;;;;;;7.50;3.25;;;;;;;22.11;70.82;101028.81;5243904;28;20459;-69
2022/06/30 09:27:47;;;;;;;9.00;3.53;;;;;;;22.38;71.52;101026.47;5246654;28;20040;-69
2022/06/30 09:30:21;;;;;;;8.65;3.50;;;;;;;22.18;69.21;101019.91;5243861;28;20023;-69
2022/06/30 09:32:54;;;;;;;9.43;3.88;;;;;;;22.34;70.93;101030.63;5241752;28;20035;-68
2022/06/30 09:35:27;;;;;;;7.88;3.80;;;;;;;22.37;69.54;101030.22;5247627;28;20064;-69
2022/06/30 09:38:03;;;;;;;9.45;3.50;;;;;;;22.68;70.57;101035.38;5244100;28;20032;-69
2022/06/30 09:40:37;;;;;;;9.52;3.60;;;;;;;22.84;69.64;101037.03;5243542;28;20028;-69
2022/06/30 09:43:08;;;;;;;7.63;3.47;;;;;;;22.78;67.91;101032.38;5261317;28;20509;-69
2022/06/30 09:45:42;;;;;;;8.38;3.67;;;;;;;23.06;68.78;101037.03;5249246;28;20037;-69
2022/06/30 09:48:13;;;;;;;7.72;4.10;;;;;;;23.29;65.90;101039.56;5244756;28;20474;-69
2022/06/30 09:50:57;;;;;;;8.10;3.08;;;;;;;23.47;66.66;101036.34;5252254;28;20033;-69
2022/06/30 09:53:29;;;;;;;7.30;3.20;;;;;;;23.41;65.23;101037.97;5252042;28;20073;-69
2022/06/30 09:56:11;;;;;;;7.53;2.83;;;;;;;23.50;65.28;101035.94;5261986;28;20057;-69
2022/06/30 09:58:43;;;;;;;6.72;3.10;;;;;;;23.36;64.61;101036.91;5237983;28;20094;-69
2022/06/30 10:01:14;;;;;;;7.45;3.40;;;;;;;23.11;63.55;101037.31;5238100;28;20446;-69
2022/06/30 10:03:48;;;;;;;9.52;3.92;;;;;;;23.26;65.36;101040.81;5243945;28;20037;-69
2022/06/30 10:06:19;;;;;;;7.43;3.00;;;;;;;23.43;65.34;101048.66;5248356;28;20552;-69
2022/06/30 10:08:53;;;;;;;8.77;3.35;;;;;;;23.39;65.09;101039.22;5250498;28;20041;-69
2022/06/30 10:11:25;;;;;;;8.10;3.08;;;;;;;23.81;65.88;101045.63;5240696;28;20029;-69
2022/06/30 10:13:56;;;;;;;6.25;2.60;;;;;;;24.17;63.69;101042.69;5246639;28;20039;-69
2022/06/30 10:16:29;;;;;;;10.65;2.95;;;;;;;24.30;62.77;101036.47;5247194;28;20129;-69
2022/06/30 10:19:01;;;;;;;7.72;3.33;;;;;;;24.41;62.16;101037.72;5238196;28;22006;-69
2022/06/30 10:21:33;;;;;;;6.22;3.10;;;;;;;24.50;60.42;101041.13;5246503;28;20112;-69
2022/06/30 10:24:06;;;;;;;7.45;2.90;;;;;;;24.54;60.20;101031.53;5247631;28;20389;-70
2022/06/30 10:29:28;;;;;;;6.03;2.85;;;;;;;24.21;61.14;101024.03;5237294;28;20069;-69
2022/06/30 10:32:11;;;;;;;7.70;2.60;;;;;;;24.57;63.71;101031.97;5241606;28;20515;-69
2022/06/30 10:34:52;;;;;;;5.30;2.65;;;;;;;24.25;61.36;101031.59;5246636;28;20037;-69
2022/06/30 10:37:31;;;;;;;6.22;2.88;;;;;;;24.24;61.68;101038.09;5247804;28;20029;-70
2022/06/30 10:40:14;;;;;;;7.78;3.58;;;;;;;24.20;60.16;101030.50;5248189;28;20031;-69
2022/06/30 10:42:48;;;;;;;6.60;2.90;;;;;;;24.32;60.45;101034.38;5239343;28;20518;-69
2022/06/30 10:45:25;;;;;;;7.20;2.63;;;;;;;24.65;63.32;101033.66;5242700;28;20021;-69
2022/06/30 10:48:03;;;;;;;6.15;3.30;;;;;;;24.44;60.66;101024.53;5238974;28;20399;-69
2022/06/30 10:50:43;;;;;;;7.05;3.00;;;;;;;24.43;63.38;101022.88;5242343;28;20122;-69
2022/06/30 10:53:17;;;;;;;8.25;2.47;;;;;;;24.65;62.39;101022.75;5242674;28;20038;-69
2022/06/30 10:55:48;;;;;;;9.75;3.70;;;;;;;24.65;60.10;101020.84;5239066;28;20384;-69
2022/06/30 10:58:21;;;;;;;6.50;2.30;;;;;;;24.72;61.96;101014.56;5246898;28;20041;-70
2022/06/30 11:00:55;;;;;;;5.80;1.93;;;;;;;24.77;62.11;101018.34;5236605;28;20295;-69
2022/06/30 11:03:29;;;;;;;6.38;2.20;;;;;;;25.02;60.95;101025.94;5238119;28;20033;-69
2022/06/30 11:06:05;;;;;;;7.28;2.88;;;;;;;25.25;60.01;101025.56;5244359;28;20033;-69
2022/06/30 11:08:39;;;;;;;5.05;2.17;;;;;;;25.17;59.25;101025.75;5241348;28;20060;-70
2022/06/30 11:11:20;;;;;;;6.50;2.15;;;;;;;25.15;59.16;101022.41;5245986;28;20024;-69
2022/06/30 11:14:01;;;;;;;6.15;2.45;;;;;;;25.26;58.21;101021.81;5250485;28;20128;-69
2022/06/30 11:16:35;;;;;;;4.72;2.80;;;;;;;25.12;56.92;101025.53;5241851;28;20041;-69
2022/06/30 11:19:22;;;;;;;6.47;2.95;;;;;;;25.28;59.29;101027.06;5238880;28;20033;-69
2022/06/30 11:21:54;;;;;;;5.65;2.42;;;;;;;25.34;59.48;101015.28;5239297;28;20033;-69
2022/06/30 11:24:27;;;;;;;5.15;2.38;;;;;;;25.22;58.84;101006.84;5241939;28;20497;-69
2022/06/30 11:27:17;;;;;;;6.70;2.70;;;;;;;25.42;58.98;101004.13;5250990;28;20036;-70
2022/06/30 11:29:56;;;;;;;7.80;2.80;;;;;;;25.40;58.62;101012.53;5244627;28;20881;-69
2022/06/30 11:32:28;;;;;;;7.68;2.55;;;;;;;25.17;58.49;101006.63;5248002;28;20028;-69
2022/06/30 11:34:59;;;;;;;5.68;2.53;;;;;;;25.05;59.62;101007.25;5249726;28;20085;-69
2022/06/30 11:37:33;;;;;;;6.97;2.22;;;;;;;25.16;59.60;101005.81;5245693;28;20127;-69
2022/06/30 11:40:08;;;;;;;7.15;3.00;;;;;;;25.22;59.00;100996.81;5245112;28;20029;-69
2022/06/30 11:42:39;;;;;;;6.47;2.40;;;;;;;25.45;58.82;100998.25;5237973;28;20048;-69
2022/06/30 11:45:19;;;;;;;8.00;2.38;;;;;;;25.62;58.16;100999.50;5240574;28;20029;-69
2022/06/30 11:48:03;;;;;;;6.47;2.78;;;;;;;25.62;58.76;100994.03;5248331;28;20048;-69